Time;durP1;ratioP1;P1;durP2;ratioP2;P2;SDS_P1;SDS_P2;PMS_P1;PMS_P2;Temp;Humidity;BMP_temperature;BMP_pressure;BME280_temperature;BME280_humidity;BME280_pressure;Samples;Min_cycle;Max_cycle;Signal;HPM_P1;HPM_P2
2022/01/19 00:01:06;;;;;;;;;;;5.40;99.90;;;;;;5075584;28;19966;-61
2022/01/19 00:03:32;;;;;;;;;;;5.40;99.90;;;;;;5075255;28;20344;-60
2022/01/19 00:05:57;;;;;;;;;;;5.40;99.90;;;;;;5073955;28;19936;-60
2022/01/19 00:08:23;;;;;;;;;;;5.40;99.90;;;;;;5074595;28;19908;-61
2022/01/19 00:10:50;;;;;;;;;;;5.40;99.90;;;;;;5074324;28;20003;-61
2022/01/19 00:13:16;;;;;;;;;;;5.40;99.90;;;;;;5073922;28;19916;-60
2022/01/19 00:15:42;;;;;;;;;;;5.40;99.90;;;;;;5074029;28;20360;-60
2022/01/19 00:18:07;;;;;;;;;;;5.40;99.90;;;;;;5079506;28;19912;-61
2022/01/19 00:20:34;;;;;;;;;;;5.40;99.90;;;;;;5093831;28;20381;-61
2022/01/19 00:23:00;;;;;;;;;;;5.50;99.90;;;;;;5094491;28;19908;-60
2022/01/19 00:25:26;;;;;;;;;;;5.40;99.90;;;;;;5094439;28;19951;-61
2022/01/19 00:27:51;;;;;;;;;;;5.40;99.90;;;;;;5093759;28;19970;-60
2022/01/19 00:30:18;;;;;;;;;;;5.40;99.90;;;;;;5094435;28;20479;-61
2022/01/19 00:32:44;;;;;;;;;;;5.50;99.90;;;;;;5094061;28;20332;-60
2022/01/19 00:35:10;;;;;;;;;;;5.50;99.90;;;;;;5083373;28;19916;-60
2022/01/19 00:37:38;;;;;;;;;;;5.50;99.90;;;;;;5073729;28;19965;-61
2022/01/19 00:40:05;;;;;;;;;;;5.60;99.90;;;;;;5074007;28;20337;-60
2022/01/19 00:42:30;;;;;;;;;;;5.60;99.90;;;;;;5072953;28;19935;-61
2022/01/19 00:44:55;;;;;;;;;;;5.60;99.90;;;;;;5073288;28;20359;-60
2022/01/19 00:47:21;;;;;;;;;;;5.70;99.90;;;;;;5073257;28;19923;-61
2022/01/19 00:49:46;;;;;;;;;;;5.70;99.90;;;;;;5073521;28;19912;-60
2022/01/19 00:52:13;;;;;;;;;;;5.70;99.90;;;;;;5073799;28;19999;-60
2022/01/19 00:54:39;;;;;;;;;;;5.70;99.90;;;;;;5091167;28;20504;-60
2022/01/19 00:57:05;;;;;;;;;;;5.70;99.90;;;;;;5093975;28;19987;-60
2022/01/19 00:59:31;;;;;;;;;;;5.70;99.90;;;;;;5093649;28;20325;-61
2022/01/19 01:01:56;;;;;;;;;;;5.70;99.90;;;;;;5093135;28;19912;-61
2022/01/19 01:04:22;;;;;;;;;;;5.70;99.90;;;;;;5093474;28;19908;-60
2022/01/19 01:06:47;;;;;;;;;;;5.70;99.90;;;;;;5093442;28;20430;-60
2022/01/19 01:09:13;;;;;;;;;;;5.80;99.90;;;;;;5093300;28;19908;-60
2022/01/19 01:11:47;;;;;;;;;;;5.70;99.90;;;;;;5093150;28;19914;-60
2022/01/19 01:16:50;;;;;;;;;;;5.80;99.90;;;;;;5072512;28;20370;-60
2022/01/19 01:19:16;;;;;;;;;;;5.70;99.90;;;;;;5073360;28;19963;-60
2022/01/19 01:21:41;;;;;;;;;;;5.60;99.90;;;;;;5072851;28;19912;-60
2022/01/19 01:24:07;;;;;;;;;;;5.60;99.90;;;;;;5072792;28;19913;-60
2022/01/19 01:26:33;;;;;;;;;;;5.40;99.90;;;;;;5072754;28;19915;-60
2022/01/19 01:28:58;;;;;;;;;;;5.20;99.90;;;;;;5073256;28;19912;-61
2022/01/19 01:31:24;;;;;;;;;;;5.10;99.90;;;;;;5072563;28;19908;-60
2022/01/19 01:33:50;;;;;;;;;;;4.90;99.90;;;;;;5084340;28;19924;-60
2022/01/19 01:36:15;;;;;;;;;;;4.80;99.90;;;;;;5093131;28;20064;-60
2022/01/19 01:38:40;;;;;;;;;;;4.70;99.90;;;;;;5092462;28;20355;-61
2022/01/19 01:41:09;;;;;;;;;;;4.60;99.90;;;;;;5093220;28;20038;-60
2022/01/19 01:43:34;;;;;;;;;;;4.60;99.90;;;;;;5092222;28;20358;-60
2022/01/19 01:46:05;;;;;;;;;;;4.60;99.90;;;;;;5093214;28;19908;-60
2022/01/19 01:48:34;;;;;;;;;;;4.60;99.90;;;;;;5092895;28;19908;-60
2022/01/19 01:53:44;;;;;;;;;;;4.60;99.90;;;;;;5079180;28;20260;-60
2022/01/19 01:56:16;;;;;;;;;;;4.70;99.90;;;;;;5072777;28;19913;-61
2022/01/19 01:58:43;;;;;;;;;;;4.70;99.90;;;;;;5072051;28;19915;-60
2022/01/19 02:01:09;;;;;;;;;;;4.70;99.90;;;;;;5072782;28;19996;-60
2022/01/19 02:03:38;;;;;;;;;;;4.70;99.90;;;;;;5072566;28;19947;-61
2022/01/19 02:08:45;;;;;;;;;;;4.60;99.90;;;;;;5072692;28;19962;-60
2022/01/19 02:16:31;;;;;;;;;;;4.60;99.90;;;;;;5093285;28;19919;-60
2022/01/19 02:21:46;;;;;;;;;;;4.70;99.90;;;;;;5092599;28;20016;-61
2022/01/19 02:24:17;;;;;;;;;;;4.80;99.90;;;;;;5092941;28;19915;-61
2022/01/19 02:27:09;;;;;;;;;;;4.80;99.90;;;;;;5093873;28;20319;-60
2022/01/19 02:40:18;;;;;;;;;;;5.00;99.90;;;;;;5096499;28;19995;-60
2022/01/19 09:25:09;;;;;;;44.60;18.55;;;3.80;99.90;;;;;;5129909;27;20898;-64
2022/01/19 09:27:38;;;;;;;41.80;18.48;;;4.30;99.90;;;;;;5129625;27;20062;-61
2022/01/19 09:30:14;;;;;;;38.00;16.60;;;4.30;99.90;;;;;;5128994;28;20098;-61
2022/01/19 09:32:39;;;;;;;32.03;13.32;;;4.30;99.90;;;;;;5129506;27;20035;-61
2022/01/19 09:35:08;;;;;;;30.80;15.43;;;4.30;99.90;;;;;;5128701;28;20035;-61
2022/01/19 09:37:36;;;;;;;23.63;11.00;;;4.30;99.90;;;;;;5117055;27;20474;-62
2022/01/19 09:40:04;;;;;;;31.33;15.23;;;4.30;99.90;;;;;;5122930;28;20077;-61
2022/01/19 09:42:30;;;;;;;30.23;13.13;;;4.40;99.90;;;;;;5127313;27;20081;-62
2022/01/19 09:44:56;;;;;;;40.15;16.85;;;4.40;99.90;;;;;;5128699;28;20027;-61
2022/01/19 09:47:22;;;;;;;34.60;15.32;;;4.50;99.90;;;;;;5128020;28;20012;-61
2022/01/19 09:49:47;;;;;;;32.05;14.68;;;4.50;99.90;;;;;;5127631;28;20028;-60
2022/01/19 09:52:13;;;;;;;38.97;15.13;;;4.50;99.90;;;;;;5128681;28;20022;-61
2022/01/19 09:54:38;;;;;;;38.90;15.43;;;4.60;99.90;;;;;;5127539;28;20024;-61
2022/01/19 09:57:05;;;;;;;38.47;15.55;;;4.70;99.90;;;;;;5126387;28;20023;-61
2022/01/19 09:59:31;;;;;;;40.80;16.52;;;4.70;99.90;;;;;;5127302;28;20026;-61
2022/01/19 10:02:07;;;;;;;39.15;15.73;;;4.80;99.90;;;;;;5127094;28;20441;-61
2022/01/19 10:04:42;;;;;;;39.13;18.05;;;4.80;99.90;;;;;;5123471;28;20027;-60
2022/01/19 10:07:13;;;;;;;30.33;16.83;;;4.80;99.90;;;;;;5124293;27;20024;-61
2022/01/19 10:09:49;;;;;;;37.85;16.33;;;4.80;99.90;;;;;;5125502;28;20023;-60
2022/01/19 10:18:19;;;;;;;37.03;16.98;;;4.90;99.90;;;;;;5125202;27;20512;-61
2022/01/19 10:20:48;;;;;;;38.15;16.58;;;4.90;99.90;;;;;;5123937;28;20011;-61
2022/01/19 10:23:42;;;;;;;31.52;15.63;;;4.80;99.90;;;;;;5126207;27;20039;-60
2022/01/19 10:26:15;;;;;;;32.10;15.60;;;4.90;99.90;;;;;;5109868;28;20328;-61
2022/01/19 10:29:00;;;;;;;39.75;17.90;;;4.90;99.90;;;;;;5112431;28;20081;-60
2022/01/19 10:31:28;;;;;;;38.53;14.75;;;4.80;99.90;;;;;;5109788;28;20533;-61
2022/01/19 10:34:10;;;;;;;40.03;16.52;;;4.80;99.90;;;;;;5112252;28;20038;-60
2022/01/19 10:36:41;;;;;;;39.60;15.52;;;4.90;99.90;;;;;;5111114;28;20474;-61
2022/01/19 10:39:07;;;;;;;35.28;14.85;;;4.90;99.90;;;;;;5109113;28;20057;-60
2022/01/19 10:41:32;;;;;;;36.15;13.30;;;4.90;99.90;;;;;;5111966;28;20454;-61
2022/01/19 10:43:58;;;;;;;33.30;14.07;;;4.90;99.90;;;;;;5112561;28;20019;-61
2022/01/19 10:46:33;;;;;;;40.95;18.60;;;4.90;99.90;;;;;;5111489;28;20076;-61
2022/01/19 10:49:07;;;;;;;35.90;16.40;;;5.00;99.90;;;;;;5112333;28;20098;-61
2022/01/19 10:51:46;;;;;;;44.38;17.23;;;4.90;99.90;;;;;;5112591;28;20054;-60
2022/01/19 10:54:16;;;;;;;32.75;15.05;;;5.00;99.90;;;;;;5091392;28;20438;-61
2022/01/19 10:56:45;;;;;;;36.92;16.23;;;5.00;99.90;;;;;;5111002;28;20374;-61
2022/01/19 10:59:16;;;;;;;52.40;19.13;;;5.00;99.90;;;;;;5111547;28;20034;-61
2022/01/19 11:01:53;;;;;;;35.10;17.42;;;5.00;99.90;;;;;;5111310;28;20719;-61
2022/01/19 11:04:37;;;;;;;43.67;17.20;;;5.10;99.90;;;;;;5112000;28;20557;-61
2022/01/19 11:07:09;;;;;;;30.33;14.93;;;5.10;99.90;;;;;;5108785;28;20053;-62
2022/01/19 11:23:26;;;;;;;44.65;21.17;;;5.20;99.90;;;;;;5107772;27;20411;-61
2022/01/19 11:25:58;;;;;;;48.95;18.35;;;5.40;99.90;;;;;;5105328;28;20019;-61
2022/01/19 11:28:51;;;;;;;50.65;20.50;;;5.30;99.90;;;;;;5116433;28;20020;-61
2022/01/19 11:31:19;;;;;;;48.55;17.98;;;5.20;99.90;;;;;;5104638;28;20131;-62
2022/01/19 11:33:58;;;;;;;48.58;20.08;;;5.20;99.90;;;;;;5108273;28;20474;-61
2022/01/19 11:36:31;;;;;;;50.88;18.48;;;5.10;99.90;;;;;;5107837;28;20035;-61
2022/01/19 11:39:23;;;;;;;43.83;20.40;;;5.10;99.90;;;;;;5108040;28;20374;-61
2022/01/19 11:42:00;;;;;;;48.85;19.67;;;5.10;99.90;;;;;;5107119;28;20035;-61
2022/01/19 11:44:29;;;;;;;52.58;19.02;;;5.10;99.90;;;;;;5107690;28;20050;-61
2022/01/19 11:46:58;;;;;;;52.80;19.23;;;5.10;99.90;;;;;;5106853;28;20490;-62
2022/01/19 11:49:56;;;;;;;49.33;19.10;;;5.10;99.90;;;;;;5106085;28;20028;-61
2022/01/19 11:52:38;;;;;;;58.15;19.02;;;5.20;99.90;;;;;;5107933;28;20024;-61
2022/01/19 11:55:20;;;;;;;46.80;16.73;;;5.10;99.90;;;;;;5108010;28;20019;-62
2022/01/19 11:57:49;;;;;;;51.78;20.17;;;5.10;99.90;;;;;;5106520;28;20020;-63
2022/01/19 12:00:30;;;;;;;47.20;16.95;;;5.00;99.90;;;;;;5107937;28;20019;-62
2022/01/19 12:02:58;;;;;;;45.13;18.83;;;5.00;99.90;;;;;;5107030;28;20063;-61
2022/01/19 12:05:26;;;;;;;66.53;25.08;;;5.10;99.90;;;;;;5108024;28;20027;-61
2022/01/19 12:07:57;;;;;;;55.13;18.85;;;5.10;99.90;;;;;;5107671;28;20088;-60
2022/01/19 12:10:30;;;;;;;47.40;21.00;;;5.10;99.90;;;;;;5106376;28;20024;-61
2022/01/19 12:13:40;;;;;;;50.58;21.13;;;5.10;99.90;;;;;;5106498;28;20423;-61
2022/01/19 12:16:50;;;;;;;49.15;18.65;;;5.10;99.90;;;;;;5093914;28;20016;-61
2022/01/19 12:19:20;;;;;;;51.35;18.70;;;5.20;99.90;;;;;;5120182;28;20102;-61
2022/01/19 12:22:05;;;;;;;47.70;19.33;;;5.20;99.90;;;;;;5126717;27;20087;-61
2022/01/19 12:24:41;;;;;;;59.05;22.27;;;5.20;99.90;;;;;;5104633;28;20020;-61
2022/01/19 12:27:13;;;;;;;54.92;20.90;;;5.20;99.90;;;;;;5092386;28;20032;-61
2022/01/19 12:29:42;;;;;;;52.42;18.42;;;5.20;99.90;;;;;;5094033;28;20051;-61
2022/01/19 12:32:17;;;;;;;53.80;24.05;;;5.20;99.90;;;;;;5092184;28;20033;-61
2022/01/19 12:34:46;;;;;;;54.45;20.75;;;5.20;99.90;;;;;;5093583;28;20134;-60
2022/01/19 12:37:33;;;;;;;48.97;20.98;;;5.40;99.90;;;;;;5093255;28;20020;-61
2022/01/19 12:40:06;;;;;;;62.45;22.35;;;5.40;99.90;;;;;;5092708;28;20384;-60
2022/01/19 12:42:51;;;;;;;52.80;20.00;;;5.40;99.90;;;;;;5093283;28;20028;-61
2022/01/19 12:45:19;;;;;;;53.97;20.33;;;5.30;99.90;;;;;;5092627;28;20474;-61
2022/01/19 12:47:52;;;;;;;47.40;20.13;;;5.30;99.90;;;;;;5094046;28;20024;-61
2022/01/19 12:50:18;;;;;;;47.17;19.27;;;5.30;99.90;;;;;;5092891;28;20240;-61
2022/01/19 12:52:50;;;;;;;60.00;19.85;;;5.40;99.90;;;;;;5092886;28;20529;-62
2022/01/19 12:55:28;;;;;;;48.55;19.63;;;5.30;99.90;;;;;;5094158;28;20024;-61
2022/01/19 12:57:56;;;;;;;55.95;21.80;;;5.30;99.90;;;;;;5094258;28;20028;-61
2022/01/19 13:00:27;;;;;;;43.58;16.63;;;5.20;99.90;;;;;;5092787;28;20369;-61
2022/01/19 13:02:53;;;;;;;46.33;19.98;;;5.30;99.90;;;;;;5094098;28;20106;-62
2022/01/19 13:05:20;;;;;;;49.55;19.02;;;5.20;99.90;;;;;;5093524;28;20412;-61
2022/01/19 13:07:57;;;;;;;58.58;23.98;;;5.30;99.90;;;;;;5091428;28;20035;-62
2022/01/19 13:10:38;;;;;;;60.53;20.38;;;5.20;99.90;;;;;;5091479;28;20165;-61
2022/01/19 13:15:51;;;;;;;42.90;15.77;;;5.30;99.90;;;;;;5092286;28;20676;-62
2022/01/19 13:18:38;;;;;;;50.58;19.58;;;5.20;99.90;;;;;;5091148;28;20119;-61
2022/01/19 13:21:07;;;;;;;59.10;21.23;;;5.20;99.90;;;;;;5077805;28;20131;-61
2022/01/19 13:23:39;;;;;;;47.72;17.77;;;5.20;99.90;;;;;;5092359;28;20115;-61
2022/01/19 13:26:10;;;;;;;53.25;20.95;;;5.30;99.90;;;;;;5093271;28;20023;-61
2022/01/19 13:28:36;;;;;;;54.35;19.65;;;5.30;99.90;;;;;;5090666;28;20032;-61
2022/01/19 13:31:14;;;;;;;46.17;19.30;;;5.30;99.90;;;;;;5093416;28;20020;-62
2022/01/19 13:33:40;;;;;;;45.92;18.48;;;5.30;99.90;;;;;;5092501;28;20020;-61
2022/01/19 13:36:07;;;;;;;51.97;18.83;;;5.30;99.90;;;;;;5092019;28;20023;-61
2022/01/19 13:38:33;;;;;;;44.85;19.05;;;5.30;99.90;;;;;;5092413;28;20042;-60
2022/01/19 13:41:04;;;;;;;38.03;14.32;;;5.40;99.90;;;;;;5092167;28;20492;-62
2022/01/19 13:43:32;;;;;;;48.03;19.27;;;5.40;99.90;;;;;;5093005;28;20019;-62
2022/01/19 13:46:02;;;;;;;55.88;20.05;;;5.50;99.90;;;;;;5093323;28;20032;-61
2022/01/19 13:48:29;;;;;;;40.17;16.92;;;5.60;99.90;;;;;;5091955;28;20028;-61
2022/01/19 13:51:14;;;;;;;52.50;17.77;;;5.60;99.90;;;;;;5092771;28;20413;-60
2022/01/19 13:53:53;;;;;;;55.65;19.35;;;5.60;99.90;;;;;;5092818;28;20039;-62
2022/01/19 13:56:55;;;;;;;46.95;19.40;;;5.60;99.90;;;;;;5092104;28;20028;-60
2022/01/19 13:59:24;;;;;;;44.30;18.05;;;5.70;99.90;;;;;;5049667;28;20448;-61
2022/01/19 14:02:00;;;;;;;41.90;17.60;;;5.60;99.90;;;;;;5093008;28;20020;-61
2022/01/19 14:04:34;;;;;;;40.38;17.08;;;5.70;99.90;;;;;;5091787;28;20032;-60
2022/01/19 14:07:14;;;;;;;41.28;16.98;;;5.70;99.90;;;;;;5091382;28;20065;-61
2022/01/19 14:09:40;;;;;;;43.10;16.27;;;5.70;99.90;;;;;;5091396;28;20090;-61
2022/01/19 14:26:07;;;;;;;46.83;17.35;;;5.80;99.90;;;;;;5108774;27;1202887;-62
2022/01/19 14:28:35;;;;;;;33.80;15.32;;;5.90;99.90;;;;;;5126044;28;20074;-60
2022/01/19 14:31:12;;;;;;;40.20;15.45;;;5.90;99.90;;;;;;5128867;28;20061;-62
2022/01/19 14:33:51;;;;;;;36.05;13.35;;;5.90;99.90;;;;;;5129524;28;20023;-63
2022/01/19 14:36:23;;;;;;;36.95;12.95;;;5.80;99.90;;;;;;5129728;28;20034;-64
2022/01/19 14:38:55;;;;;;;24.65;10.45;;;5.80;99.90;;;;;;5125735;28;20030;-60
2022/01/19 14:41:30;;;;;;;37.53;14.63;;;5.80;99.90;;;;;;5116867;28;20038;-55
2022/01/19 14:44:02;;;;;;;34.35;15.50;;;5.80;99.90;;;;;;5129052;28;20054;-57
2022/01/19 14:47:05;;;;;;;34.58;14.85;;;5.80;99.90;;;;;;5115249;28;20023;-58
2022/01/19 14:49:33;;;;;;;36.00;13.40;;;5.70;99.90;;;;;;5112367;28;20055;-57
2022/01/19 14:52:00;;;;;;;37.28;13.93;;;5.70;99.90;;;;;;5127012;28;20033;-60
2022/01/19 14:54:25;;;;;;;29.00;13.57;;;5.70;99.90;;;;;;5129332;28;20043;-57
2022/01/19 14:56:52;;;;;;;31.75;13.48;;;5.70;99.90;;;;;;5117566;28;20046;-57
2022/01/19 14:59:20;;;;;;;31.55;12.88;;;5.70;99.90;;;;;;5115808;28;20016;-56
2022/01/19 15:01:50;;;;;;;39.53;13.27;;;5.70;99.90;;;;;;5117395;28;20020;-60
2022/01/19 15:04:16;;;;;;;29.83;10.07;;;5.70;99.90;;;;;;5116220;28;20425;-58
2022/01/19 15:06:44;;;;;;;37.15;14.02;;;5.70;99.90;;;;;;5116076;28;20019;-58
2022/01/19 15:09:10;;;;;;;30.50;13.93;;;5.80;99.90;;;;;;5118251;28;20029;-57
2022/01/19 15:11:36;;;;;;;36.10;15.27;;;5.70;99.90;;;;;;5118057;28;20019;-58
2022/01/19 15:14:02;;;;;;;27.35;11.07;;;5.70;99.90;;;;;;5115488;28;20028;-60
2022/01/19 15:16:28;;;;;;;27.00;10.43;;;5.80;99.90;;;;;;5117712;28;20092;-58
2022/01/19 15:18:54;;;;;;;32.03;14.07;;;5.80;99.90;;;;;;5113662;28;20064;-58
2022/01/19 15:21:20;;;;;;;27.23;12.20;;;5.80;99.90;;;;;;5117794;28;20474;-57
2022/01/19 15:23:48;;;;;;;38.35;13.52;;;5.80;99.90;;;;;;5128578;28;20011;-57
2022/01/19 15:26:13;;;;;;;36.67;14.77;;;5.80;99.90;;;;;;5119003;28;20088;-57
2022/01/19 15:28:39;;;;;;;31.67;13.15;;;5.80;99.90;;;;;;5114056;28;20440;-58
2022/01/19 15:31:06;;;;;;;24.55;9.50;;;5.80;99.90;;;;;;5114910;28;20023;-58
2022/01/19 15:33:32;;;;;;;35.33;14.25;;;5.80;99.90;;;;;;5113863;28;20059;-58
2022/01/19 15:36:01;;;;;;;24.88;9.27;;;5.80;99.90;;;;;;5114684;28;20023;-58
2022/01/19 15:38:27;;;;;;;33.53;13.00;;;5.80;99.90;;;;;;5114200;28;20020;-54
2022/01/19 15:40:52;;;;;;;20.40;7.45;;;5.80;99.90;;;;;;5113734;28;20031;-52
2022/01/19 15:43:18;;;;;;;24.10;11.05;;;5.80;99.90;;;;;;5114562;28;20024;-56
2022/01/19 15:45:49;;;;;;;22.30;9.00;;;5.80;99.90;;;;;;5114235;28;20028;-55
2022/01/19 15:48:17;;;;;;;25.33;11.23;;;5.80;99.90;;;;;;5114011;28;20242;-55
2022/01/19 15:50:47;;;;;;;29.93;13.27;;;5.80;99.90;;;;;;5113028;28;20140;-55
2022/01/19 15:53:13;;;;;;;23.25;9.40;;;5.80;99.90;;;;;;5114412;28;20027;-52
2022/01/19 15:55:39;;;;;;;23.83;9.68;;;5.90;99.90;;;;;;5113422;28;20035;-55
2022/01/19 15:58:06;;;;;;;20.88;9.43;;;5.90;99.90;;;;;;5114337;28;20019;-56
2022/01/19 16:00:32;;;;;;;26.23;10.38;;;5.90;99.90;;;;;;5113920;28;20020;-58
2022/01/19 16:02:58;;;;;;;17.48;7.60;;;5.90;99.90;;;;;;5113167;28;20082;-58
2022/01/19 16:05:25;;;;;;;20.95;10.07;;;6.00;99.90;;;;;;5114285;28;20059;-57
2022/01/19 16:07:50;;;;;;;16.48;8.88;;;6.00;99.90;;;;;;5113824;28;20015;-56
2022/01/19 16:10:16;;;;;;;20.17;7.50;;;6.00;99.90;;;;;;5113264;28;20076;-56
2022/01/19 16:12:41;;;;;;;16.42;8.20;;;6.00;99.90;;;;;;5113342;28;20024;-57
2022/01/19 16:15:07;;;;;;;23.88;10.23;;;6.00;99.90;;;;;;5109839;28;20063;-55
2022/01/19 16:17:33;;;;;;;20.90;9.70;;;6.00;99.90;;;;;;5107871;28;20032;-55
2022/01/19 16:19:59;;;;;;;22.10;9.77;;;6.00;99.90;;;;;;5098274;28;20018;-56
2022/01/19 16:27:54;;;;;;;19.08;7.90;;;6.10;99.90;;;;;;5114301;28;20435;-57
2022/01/19 16:30:19;;;;;;;18.48;8.40;;;6.10;99.90;;;;;;5113203;28;20043;-57
2022/01/19 16:32:45;;;;;;;20.92;8.80;;;6.20;99.90;;;;;;5113357;28;20047;-59
2022/01/19 16:35:10;;;;;;;17.27;6.80;;;6.20;99.90;;;;;;5106575;28;20041;-57
2022/01/19 16:37:36;;;;;;;21.83;8.65;;;6.30;99.90;;;;;;5091097;28;20103;-56
2022/01/19 16:40:04;;;;;;;22.05;8.63;;;6.40;99.90;;;;;;5093254;28;20480;-56
2022/01/19 16:42:30;;;;;;;20.38;7.60;;;6.40;99.90;;;;;;5092833;28;20461;-57
2022/01/19 16:44:56;;;;;;;25.08;7.68;;;6.40;99.90;;;;;;5092375;28;20026;-56
2022/01/19 16:47:26;;;;;;;29.70;9.13;;;6.50;99.90;;;;;;5092982;28;20107;-57
2022/01/19 16:49:52;;;;;;;26.77;8.45;;;6.50;99.90;;;;;;5092070;28;20398;-55
2022/01/19 16:52:19;;;;;;;16.30;7.45;;;6.60;99.90;;;;;;5092117;28;20028;-55
2022/01/19 16:54:46;;;;;;;9.70;5.82;;;6.60;99.90;;;;;;5092610;28;20499;-55
2022/01/19 16:57:12;;;;;;;21.27;6.50;;;6.70;99.90;;;;;;5093058;28;20028;-56
2022/01/19 16:59:37;;;;;;;20.77;8.20;;;6.70;99.90;;;;;;5091929;28;20432;-56
2022/01/19 17:02:03;;;;;;;21.40;7.85;;;6.70;99.90;;;;;;5092668;28;20481;-55
2022/01/19 17:04:32;;;;;;;19.80;8.35;;;6.80;99.90;;;;;;5092362;28;20031;-58
2022/01/19 17:06:58;;;;;;;;;;;6.80;99.90;;;;;;5092468;28;20027;-57
2022/01/19 17:09:23;;;;;;;16.00;6.32;;;6.80;99.90;;;;;;5092696;28;19904;-55
2022/01/19 17:11:48;;;;;;;20.02;4.90;;;6.80;99.90;;;;;;5099902;28;20016;-55
2022/01/19 17:14:23;;;;;;;17.65;6.65;;;6.90;99.90;;;;;;5112281;28;20038;-55
2022/01/19 17:19:24;;;;;;;9.20;3.00;;;6.90;99.90;;;;;;5091975;28;20036;-57
2022/01/19 17:21:51;;;;;;;10.52;2.22;;;6.90;99.90;;;;;;5091786;28;20089;-57
2022/01/19 17:24:18;;;;;;;3.90;2.40;;;6.90;99.90;;;;;;5092067;28;20471;-57
2022/01/19 17:26:44;;;;;;;2.03;1.17;;;6.90;99.90;;;;;;5091410;28;20028;-56
2022/01/19 17:29:09;;;;;;;15.60;1.90;;;6.90;99.90;;;;;;5092212;28;20020;-52
2022/01/19 17:31:35;;;;;;;9.65;2.90;;;6.90;99.90;;;;;;5092102;28;20437;-52
2022/01/19 17:34:03;;;;;;;4.90;1.23;;;6.90;99.90;;;;;;5097426;28;20050;-54
2022/01/19 17:36:28;;;;;;;3.60;1.63;;;6.90;99.90;;;;;;5111906;28;20465;-53
2022/01/19 17:38:54;;;;;;;9.73;1.50;;;6.80;99.90;;;;;;5112319;28;20023;-53
2022/01/19 17:41:20;;;;;;;3.00;1.08;;;6.80;99.90;;;;;;5111614;28;20024;-56
2022/01/19 17:43:49;;;;;;;11.60;1.80;;;6.80;99.90;;;;;;5112161;28;20030;-55
2022/01/19 17:46:21;;;;;;;4.05;1.17;;;6.80;99.90;;;;;;5112039;28;20027;-55
2022/01/19 17:49:05;;;;;;;8.55;1.73;;;6.80;99.90;;;;;;5110464;28;20061;-53
2022/01/19 17:54:03;;;;;;;5.20;1.27;;;6.80;99.90;;;;;;5112248;28;20032;-50
2022/01/19 17:56:29;;;;;;;9.88;2.35;;;6.80;99.90;;;;;;5111201;28;20031;-55
2022/01/19 17:58:56;;;;;;;8.55;1.63;;;6.80;99.90;;;;;;5112296;28;20103;-54
2022/01/19 18:01:24;;;;;;;7.15;1.60;;;6.80;99.90;;;;;;5111374;28;20043;-52
2022/01/19 18:03:50;;;;;;;6.53;1.17;;;6.80;99.90;;;;;;5112009;28;20011;-52
2022/01/19 18:06:18;;;;;;;6.15;1.70;;;6.80;99.90;;;;;;5112179;28;20020;-52
2022/01/19 18:08:43;;;;;;;7.47;1.27;;;6.80;99.90;;;;;;5110538;28;20027;-47
2022/01/19 18:11:09;;;;;;;3.80;0.88;;;6.80;99.90;;;;;;5111893;28;20168;-49
2022/01/19 18:13:35;;;;;;;12.40;1.27;;;6.80;99.90;;;;;;5111626;28;20111;-47
2022/01/19 18:16:01;;;;;;;6.70;1.70;;;6.80;99.90;;;;;;5110671;28;20223;-51
2022/01/19 18:18:26;;;;;;;8.68;1.75;;;6.80;99.90;;;;;;5098164;28;20024;-51
2022/01/19 18:20:52;;;;;;;11.65;1.88;;;6.90;99.90;;;;;;5091775;28;20482;-50
2022/01/19 18:23:17;;;;;;;10.32;1.73;;;6.90;99.90;;;;;;5111366;28;20023;-50
2022/01/19 18:25:43;;;;;;;5.05;1.67;;;6.90;99.90;;;;;;5111498;28;20126;-52
2022/01/19 18:28:09;;;;;;;12.13;2.03;;;6.90;99.90;;;;;;5111991;28;20027;-53
2022/01/19 18:30:34;;;;;;;14.98;2.17;;;6.90;99.90;;;;;;5111001;28;20107;-53
2022/01/19 18:33:00;;;;;;;15.93;1.95;;;6.90;99.90;;;;;;5111705;28;20024;-53
2022/01/19 18:35:25;;;;;;;11.02;2.45;;;6.90;99.90;;;;;;5091450;28;20028;-55
2022/01/19 18:37:54;;;;;;;15.70;2.17;;;6.90;99.90;;;;;;5090433;28;20036;-53
2022/01/19 18:40:25;;;;;;;;;;;6.80;99.90;;;;;;5091937;28;20077;-53
2022/01/19 18:42:52;;;;;;;10.05;2.15;;;6.80;99.90;;;;;;5091074;28;19946;-53
2022/01/19 18:45:20;;;;;;;17.63;2.47;;;6.80;99.90;;;;;;5090781;28;20055;-54
2022/01/19 18:47:48;;;;;;;29.80;2.95;;;6.80;99.90;;;;;;5091183;28;20024;-53
2022/01/19 18:50:15;;;;;;;9.85;2.08;;;6.80;99.90;;;;;;5091370;28;20039;-54
2022/01/19 18:52:41;;;;;;;20.23;2.92;;;6.80;99.90;;;;;;5090365;28;20112;-55
2022/01/19 18:55:09;;;;;;;19.75;2.38;;;6.70;99.90;;;;;;5091361;28;20393;-55
2022/01/19 18:57:35;;;;;;;22.77;3.10;;;6.70;99.90;;;;;;5090428;28;20024;-54
2022/01/19 19:00:01;;;;;;;15.45;3.20;;;6.60;99.90;;;;;;5091286;28;20031;-55
2022/01/19 19:02:29;;;;;;;10.98;1.90;;;6.60;99.90;;;;;;5095074;28;20028;-57
2022/01/19 19:04:54;;;;;;;15.68;3.60;;;6.60;99.90;;;;;;5094246;28;20455;-57
2022/01/19 19:07:20;;;;;;;16.65;2.30;;;6.60;99.90;;;;;;5095100;28;20031;-55
2022/01/19 19:10:11;;;;;;;26.08;4.65;;;6.50;99.90;;;;;;5096766;28;20052;-57
2022/01/19 19:12:36;;;;;;;21.38;3.92;;;6.50;99.90;;;;;;5113742;28;20054;-57
2022/01/19 19:15:04;;;;;;;7.37;2.77;;;6.50;99.90;;;;;;5114624;28;20035;-56
2022/01/19 19:17:29;;;;;;;19.52;4.05;;;6.50;99.90;;;;;;5115002;28;20024;-55
2022/01/19 19:19:55;;;;;;;24.92;3.97;;;6.50;99.90;;;;;;5114445;28;20023;-54
2022/01/19 19:22:23;;;;;;;10.15;2.55;;;6.50;99.90;;;;;;5115224;28;20027;-53
2022/01/19 19:24:49;;;;;;;16.33;3.55;;;6.50;99.90;;;;;;5114689;28;20081;-52
2022/01/19 19:27:16;;;;;;;10.30;2.40;;;6.50;99.90;;;;;;5114181;28;20346;-52
2022/01/19 19:29:42;;;;;;;23.35;4.05;;;6.50;99.90;;;;;;5114652;28;20458;-49
2022/01/19 19:32:08;;;;;;;14.13;2.97;;;6.50;99.90;;;;;;5114082;28;20023;-50
2022/01/19 19:34:34;;;;;;;15.50;2.88;;;6.50;99.90;;;;;;5102734;28;20052;-52
2022/01/19 19:37:00;;;;;;;21.83;3.55;;;6.40;99.90;;;;;;5094477;28;20116;-53
2022/01/19 19:39:26;;;;;;;12.85;3.40;;;6.40;99.90;;;;;;5108754;28;20034;-55
2022/01/19 19:41:55;;;;;;;16.90;2.38;;;6.40;99.90;;;;;;5113888;28;20023;-56
2022/01/19 19:44:21;;;;;;;12.45;2.40;;;6.30;99.90;;;;;;5114632;28;20470;-55
2022/01/19 19:46:47;;;;;;;7.05;1.23;;;6.30;99.90;;;;;;5113715;28;20058;-56
2022/01/19 19:49:13;;;;;;;13.32;2.58;;;6.30;99.90;;;;;;5114794;28;20099;-56
2022/01/19 19:51:39;;;;;;;18.55;2.67;;;6.20;99.90;;;;;;5114103;28;20095;-55
2022/01/19 19:54:05;;;;;;;12.23;2.30;;;6.10;99.90;;;;;;5113909;28;20111;-56
2022/01/19 19:56:34;;;;;;;9.25;1.80;;;6.10;99.90;;;;;;5114370;28;20442;-55
2022/01/19 19:59:03;;;;;;;8.07;1.38;;;6.00;99.90;;;;;;5113783;28;20072;-53
2022/01/19 20:01:28;;;;;;;;;;;5.90;99.90;;;;;;5103210;28;20024;-56
2022/01/19 20:03:54;;;;;;;6.07;1.30;;;5.90;99.90;;;;;;5094074;28;19911;-57
2022/01/19 20:06:19;;;;;;;12.70;1.85;;;5.90;99.90;;;;;;5111129;28;20351;-55
2022/01/19 20:08:46;;;;;;;11.43;2.25;;;5.80;99.90;;;;;;5113338;28;20111;-56
2022/01/19 20:11:12;;;;;;;11.70;1.50;;;5.80;99.90;;;;;;5114399;28;20440;-56
2022/01/19 20:13:38;;;;;;;6.68;1.70;;;5.80;99.90;;;;;;5113345;28;20477;-54
2022/01/19 20:16:03;;;;;;;7.07;1.77;;;5.80;99.90;;;;;;5113379;28;20028;-53
2022/01/19 20:18:29;;;;;;;9.00;1.63;;;5.80;99.90;;;;;;5113732;28;20024;-55
2022/01/19 20:20:55;;;;;;;9.35;1.88;;;5.70;99.90;;;;;;5114017;28;20034;-57
2022/01/19 20:23:23;;;;;;;10.77;2.08;;;5.70;99.90;;;;;;5113074;28;20058;-56
2022/01/19 20:25:49;;;;;;;9.20;1.90;;;5.70;99.90;;;;;;5113499;28;20047;-56
2022/01/19 20:28:15;;;;;;;13.57;2.28;;;5.70;99.90;;;;;;5113823;28;20024;-56
2022/01/19 20:30:43;;;;;;;9.13;2.58;;;5.60;99.90;;;;;;5112838;28;20032;-55
2022/01/19 20:33:09;;;;;;;13.03;1.63;;;5.60;99.90;;;;;;5113671;28;20035;-56
2022/01/19 20:35:35;;;;;;;10.55;1.15;;;5.60;99.90;;;;;;5110440;28;20039;-56
2022/01/19 20:38:02;;;;;;;10.15;2.17;;;5.60;99.90;;;;;;5092390;28;20027;-55
2022/01/19 20:40:28;;;;;;;11.40;2.30;;;5.60;99.90;;;;;;5102076;28;20430;-57
2022/01/19 20:42:53;;;;;;;12.93;1.80;;;5.50;99.90;;;;;;5113424;28;20078;-56
2022/01/19 20:45:19;;;;;;;20.42;2.53;;;5.50;99.90;;;;;;5112293;28;20059;-56
2022/01/19 20:47:45;;;;;;;13.18;2.90;;;5.50;99.90;;;;;;5108406;28;20019;-55
2022/01/19 20:50:11;;;;;;;7.82;2.33;;;5.50;99.90;;;;;;5092466;28;20114;-56
2022/01/19 20:52:37;;;;;;;13.85;2.40;;;5.50;99.90;;;;;;5104161;28;20039;-56
2022/01/19 20:55:05;;;;;;;10.13;1.67;;;5.40;99.90;;;;;;5113195;28;20035;-56
2022/01/19 20:57:32;;;;;;;16.33;2.17;;;5.50;99.90;;;;;;5112233;28;20016;-56
2022/01/19 20:59:58;;;;;;;18.42;2.15;;;5.40;99.90;;;;;;5113003;28;20066;-57
2022/01/19 21:02:24;;;;;;;10.00;2.22;;;5.30;99.90;;;;;;5113276;28;20052;-56
2022/01/19 21:04:50;;;;;;;9.95;1.10;;;5.30;99.90;;;;;;5100564;28;20024;-57
2022/01/19 21:07:15;;;;;;;12.05;1.83;;;5.20;99.90;;;;;;5092996;28;20078;-56